Time;durP1;ratioP1;P1;durP2;ratioP2;P2;SDS_P1;SDS_P2;PMS_P1;PMS_P2;Temp;Humidity;BMP_temperature;BMP_pressure;BME280_temperature;BME280_humidity;BME280_pressure;Samples;Min_cycle;Max_cycle;Signal;HPM_P1;HPM_P2
2023/06/26 00:05:20;;;;;;;;;;;;;;;;;;6105328;22;20772;-82
2023/06/26 00:07:47;;;;;;;;;;;;;;;;;;4998829;28;19909;-85
2023/06/26 00:10:16;;;;;;;;;;;;;;;;;;5018241;28;19925;-83
2023/06/26 00:13:05;;;;;;;;;;;;;;;;;;5032306;28;19979;-85
2023/06/26 00:15:31;;;;;;;;;;;;;;;;;;5019570;28;19909;-87
2023/06/26 00:20:34;;;;;;;;;;;;;;;;;;5140616;22;20388;-85
2023/06/26 00:23:07;;;;;;;;;;;;;;;;;;5006039;28;19929;-84
2023/06/26 00:25:33;;;;;;;;;;;;;;;;;;5017234;28;19921;-85
2023/06/26 00:27:59;;;;;;;;;;;;;;;;;;5017318;28;19948;-83
2023/06/26 00:30:28;;;;;;;;;;;;;;;;;;4998492;28;19921;-84
2023/06/26 00:32:55;;;;;;;;;;;;;;;;;;5004391;28;19932;-84
2023/06/26 00:35:24;;;;;;;;;;;;;;;;;;4994262;28;19932;-86
2023/06/26 00:37:50;;;;;;;;;;;;;;;;;;5015392;28;19909;-84
2023/06/26 00:45:29;;;;;;;;;;;;;;;;;;5028306;28;19973;-81
2023/06/26 00:48:04;;;;;;;;;;;;;;;;;;5032173;28;19926;-84
2023/06/26 00:50:32;;;;;;;;;;;;;;;;;;5004840;28;19965;-85
2023/06/26 00:53:18;;;;;;;;;;;;;;;;;;4994760;28;19916;-84
2023/06/26 00:55:45;;;;;;;;;;;;;;;;;;5020556;28;20414;-84
2023/06/26 00:58:30;;;;;;;;;;;;;;;;;;5023538;28;20024;-85
2023/06/26 01:00:56;;;;;;;;;;;;;;;;;;5004378;28;19926;-86
2023/06/26 01:03:39;;;;;;;;;;;;;;;;;;5018022;28;19932;-85
2023/06/26 01:06:06;;;;;;;;;;;;;;;;;;4998447;28;19921;-85
2023/06/26 01:08:32;;;;;;;;;;;;;;;;;;5006830;28;19910;-85
2023/06/26 01:11:05;;;;;;;;;;;;;;;;;;5008258;28;19921;-85
2023/06/26 01:13:31;;;;;;;;;;;;;;;;;;5020496;28;19925;-84
2023/06/26 01:16:00;;;;;;;;;;;;;;;;;;5022682;28;19933;-84
2023/06/26 01:18:36;;;;;;;;;;;;;;;;;;5036460;28;19922;-84
2023/06/26 01:21:02;;;;;;;;;;;;;;;;;;4999505;28;19921;-85
2023/06/26 01:23:28;;;;;;;;;;;;;;;;;;5018922;28;19913;-87
2023/06/26 01:25:56;;;;;;;;;;;;;;;;;;5033363;28;19905;-83
2023/06/26 01:28:55;;;;;;;;;;;;;;;;;;5039916;28;19980;-85
2023/06/26 01:31:30;;;;;;;;;;;;;;;;;;5037864;28;19906;-84
2023/06/26 01:34:00;;;;;;;;;;;;;;;;;;5023936;28;19930;-83
2023/06/26 01:36:50;;;;;;;;;;;;;;;;;;5026424;28;19909;-85
2023/06/26 01:39:16;;;;;;;;;;;;;;;;;;5005590;28;20371;-84
2023/06/26 01:41:42;;;;;;;;;;;;;;;;;;5003377;28;19921;-84
2023/06/26 01:46:57;;;;;;;;;;;;;;;;;;5197242;23;19995;-84
2023/06/26 01:49:23;;;;;;;;;;;;;;;;;;5078589;28;19915;-83
2023/06/26 01:51:49;;;;;;;;;;;;;;;;;;5066784;28;19964;-87
2023/06/26 01:57:22;;;;;;;;;;;;;;;;;;5101191;28;19907;-83
2023/06/26 02:00:00;;;;;;;;;;;;;;;;;;5098807;28;19925;-84
2023/06/26 02:02:27;;;;;;;;;;;;;;;;;;5066492;28;19904;-87
2023/06/26 02:04:56;;;;;;;;;;;;;;;;;;5086444;28;19964;-84
2023/06/26 02:07:22;;;;;;;;;;;;;;;;;;5077974;28;19925;-86
2023/06/26 02:09:51;;;;;;;;;;;;;;;;;;5078089;28;20395;-84
2023/06/26 02:12:20;;;;;;;;;;;;;;;;;;5057148;28;19968;-84
2023/06/26 02:15:04;;;;;;;;;;;;;;;;;;5075783;28;20004;-85
2023/06/26 02:17:30;;;;;;;;;;;;;;;;;;5078274;28;19964;-84
2023/06/26 02:19:56;;;;;;;;;;;;;;;;;;5062853;28;19908;-85
2023/06/26 02:22:31;;;;;;;;;;;;;;;;;;5069102;28;19928;-84
2023/06/26 02:25:03;;;;;;;;;;;;;;;;;;5077966;28;19916;-83
2023/06/26 02:27:30;;;;;;;;;;;;;;;;;;5078738;28;19916;-84
2023/06/26 02:29:59;;;;;;;;;;;;;;;;;;5061335;28;19921;-84
2023/06/26 02:32:31;;;;;;;;;;;;;;;;;;5062758;28;19985;-85
2023/06/26 02:35:16;;;;;;;;;;;;;;;;;;5279714;22;19910;-83
2023/06/26 02:37:42;;;;;;;;;;;;;;;;;;5031161;28;19909;-84
2023/06/26 02:40:26;;;;;;;;;;;;;;;;;;5044056;28;19933;-83
2023/06/26 02:45:46;;;;;;;;;;;;;;;;;;5056642;28;19916;-83
2023/06/26 02:48:16;;;;;;;;;;;;;;;;;;5061976;28;19925;-84
2023/06/26 02:51:00;;;;;;;;;;;;;;;;;;4996955;28;19933;-84
2023/06/26 02:53:31;;;;;;;;;;;;;;;;;;5051235;28;19928;-84
2023/06/26 02:56:02;;;;;;;;;;;;;;;;;;5078343;23;19947;-83
2023/06/26 03:01:36;;;;;;;;;;;;;;;;;;5059922;28;19972;-84
2023/06/26 03:04:24;;;;;;;;;;;;;;;;;;5056284;28;19924;-86
2023/06/26 03:06:49;;;;;;;;;;;;;;;;;;5025367;28;19929;-84
2023/06/26 03:09:28;;;;;;;;;;;;;;;;;;5041779;28;19919;-84
2023/06/26 03:11:55;;;;;;;;;;;;;;;;;;5041000;28;19932;-85
2023/06/26 03:19:38;;;;;;;;;;;;;;;;;;5848223;22;19988;-85
2023/06/26 03:22:13;;;;;;;;;;;;;;;;;;5046982;28;19951;-84
2023/06/26 03:24:41;;;;;;;;;;;;;;;;;;5044477;28;19931;-84
2023/06/26 03:27:09;;;;;;;;;;;;;;;;;;5056569;28;19929;-85
2023/06/26 03:29:57;;;;;;;;;;;;;;;;;;5051891;28;20395;-85
2023/06/26 03:32:23;;;;;;;;;;;;;;;;;;5038847;28;19904;-84
2023/06/26 03:34:52;;;;;;;;;;;;;;;;;;5040846;28;20251;-84
2023/06/26 03:37:20;;;;;;;;;;;;;;;;;;5044710;28;19917;-83
2023/06/26 03:39:46;;;;;;;;;;;;;;;;;;5057558;28;19992;-84
2023/06/26 03:42:21;;;;;;;;;;;;;;;;;;5129184;23;19929;-84
2023/06/26 03:44:47;;;;;;;;;;;;;;;;;;5045157;28;19908;-83
2023/06/26 03:47:22;;;;;;;;;;;;;;;;;;5043600;28;19905;-84
2023/06/26 03:49:51;;;;;;;;;;;;;;;;;;5045937;28;19909;-84
2023/06/26 04:05:25;;;;;;;;;;;;;;;;;;5628665;22;19933;-85
2023/06/26 04:08:10;;;;;;;;;;;;;;;;;;5065033;28;19909;-84
2023/06/26 04:10:40;;;;;;;;;;;;;;;;;;5022528;28;19925;-85
2023/06/26 04:13:08;;;;;;;;;;;;;;;;;;5041100;28;19913;-84
2023/06/26 04:15:35;;;;;;;;;;;;;;;;;;5024632;28;19917;-87
2023/06/26 04:18:01;;;;;;;;;;;;;;;;;;5163137;23;19924;-86
2023/06/26 04:20:30;;;;;;;;;;;;;;;;;;5011870;28;19948;-84
2023/06/26 04:23:09;;;;;;;;;;;;;;;;;;5571237;23;19989;-84
2023/06/26 04:25:39;;;;;;;;;;;;;;;;;;5018761;28;19921;-85
2023/06/26 04:28:23;;;;;;;;;;;;;;;;;;;;;
2023/06/26 04:30:49;;;;;;;;;;;;;;;;;;5017327;28;19929;-83
2023/06/26 04:33:29;;;;;;;;;;;;;;;;;;5018428;28;19984;-84
2023/06/26 04:36:05;;;;;;;;;;;;;;;;;;5021083;28;19916;-86
2023/06/26 04:38:34;;;;;;;;;;;;;;;;;;5005415;28;19965;-85
2023/06/26 04:41:01;;;;;;;;;;;;;;;;;;5113206;23;19957;-88
2023/06/26 04:43:37;;;;;;;;;;;;;;;;;;5040359;28;19928;-88
2023/06/26 05:17:15;;;;;;;;;;;;;;;;;;5489989;22;20387;-91
2023/06/26 05:19:47;;;;;;;;;;;;;;;;;;5046387;28;19917;-91
2023/06/26 05:22:13;;;;;;;;;;;;;;;;;;5045953;28;19936;-89
2023/06/26 05:24:39;;;;;;;;;;;;;;;;;;5181505;22;19932;-92
2023/06/26 05:27:06;;;;;;;;;;;;;;;;;;5042986;28;19917;-92
2023/06/26 05:32:12;;;;;;;;;;;;;;;;;;5299572;23;19984;-90
2023/06/26 05:34:39;;;;;;;;;;;;;;;;;;5043627;28;20017;-91
2023/06/26 05:39:45;;;;;;;;;;;;;;;;;;5624756;22;19909;-91
2023/06/26 05:42:11;;;;;;;;;;;;;;;;;;5045827;28;19908;-91
2023/06/26 05:47:18;;;;;;;;;;;;;;;;;;5934913;22;19916;-92
2023/06/26 08:25:43;;;;;;;;;;;;;;;;;;5031172;28;19933;-85
2023/06/26 08:28:09;;;;;;;;;;;;;;;;;;4993843;28;19922;-84
2023/06/26 08:30:38;;;;;;;;;;;;;;;;;;5005341;28;19910;-83
2023/06/26 08:33:36;;;;;;;;;;;;;;;;;;5037948;28;19925;-86
2023/06/26 08:51:44;;;;;;;;;;;;;;;;;;5183569;22;19955;-86
2023/06/26 09:12:58;;;;;;;;;;;;;;;;;;5028763;28;19956;-86
2023/06/26 09:15:36;;;;;;;;;;;;;;;;;;5022137;28;19973;-86
2023/06/26 09:23:33;;;;;;;;;;;;;;;;;;5097756;22;19925;-86
2023/06/26 09:26:02;;;;;;;;;;;;;;;;;;5038782;28;19948;-88
2023/06/26 09:28:40;;;;;;;;;;;;;;;;;;5039414;28;19909;-89
2023/06/26 09:59:51;;;;;;;;;;;;;;;;;;5570460;22;19908;-89
2023/06/26 10:04:54;;;;;;;;;;;;;;;;;;5487874;22;19951;-88
2023/06/26 10:07:20;;;;;;;;;;;;;;;;;;5044846;28;19909;-88
2023/06/26 10:09:50;;;;;;;;;;;;;;;;;;5062499;28;19929;-88
2023/06/26 10:12:19;;;;;;;;;;;;;;;;;;5063164;28;19925;-87
2023/06/26 10:15:00;;;;;;;;;;;;;;;;;;5065347;28;19912;-87
2023/06/26 10:17:27;;;;;;;;;;;;;;;;;;5045941;28;19919;-88
2023/06/26 10:22:47;;;;;;;;;;;;;;;;;;5956673;22;19951;-87
2023/06/26 11:58:55;;;;;;;;;;;;;;;;;;1325665;26;19925;-83
2023/06/26 12:01:24;;;;;;;;;;;;;;;;;;5000957;28;19944;-87
2023/06/26 12:03:56;;;;;;;;;;;;;;;;;;5020227;28;19921;-84
2023/06/26 12:06:22;;;;;;;;;;;;;;;;;;5003523;28;19909;-85
2023/06/26 12:08:51;;;;;;;;;;;;;;;;;;4989996;28;19948;-85
2023/06/26 12:11:29;;;;;;;;;;;;;;;;;;4984033;28;19949;-83
2023/06/26 12:13:55;;;;;;;;;;;;;;;;;;5014577;28;19973;-84
2023/06/26 12:16:25;;;;;;;;;;;;;;;;;;5021434;28;19978;-83
2023/06/26 12:19:02;;;;;;;;;;;;;;;;;;5017114;28;19975;-89
2023/06/26 12:21:29;;;;;;;;;;;;;;;;;;5017458;28;19922;-86
2023/06/26 12:24:13;;;;;;;;;;;;;;;;;;5004291;28;19925;-87
2023/06/26 12:26:58;;;;;;;;;;;;;;;;;;5022247;28;19936;-88
2023/06/26 12:29:48;;;;;;;;;;;;;;;;;;5038128;28;19940;-88
2023/06/26 12:50:25;;;;;;;;;;;;;;;;;;5341599;22;19916;-86
2023/06/26 12:52:50;;;;;;;;;;;;;;;;;;5040665;28;20007;-86
2023/06/26 12:55:16;;;;;;;;;;;;;;;;;;5048158;28;19932;-85
2023/06/26 12:57:43;;;;;;;;;;;;;;;;;;5039005;28;19965;-87
2023/06/26 13:28:44;;;;;;;;;;;;;;;;;;5030945;28;19933;-86
2023/06/26 13:31:13;;;;;;;;;;;;;;;;;;5000155;28;19929;-85
2023/06/26 13:33:40;;;;;;;;;;;;;;;;;;5002448;28;19925;-85
2023/06/26 13:36:06;;;;;;;;;;;;;;;;;;5004016;28;20454;-85
2023/06/26 13:38:34;;;;;;;;;;;;;;;;;;5006193;28;19925;-86
2023/06/26 13:41:00;;;;;;;;;;;;;;;;;;5006677;28;19910;-86
2023/06/26 15:11:40;;;;;;;;;;;;;;;;;;5033402;28;19929;-86
2023/06/26 15:14:07;;;;;;;;;;;;;;;;;;5017681;28;19945;-87
2023/06/26 15:16:37;;;;;;;;;;;;;;;;;;5018933;28;20391;-85
2023/06/26 15:19:19;;;;;;;;;;;;;;;;;;5035878;28;19947;-86
2023/06/26 15:21:48;;;;;;;;;;;;;;;;;;5003187;28;19906;-87
2023/06/26 15:24:14;;;;;;;;;;;;;;;;;;5000229;28;19914;-88
2023/06/26 15:26:43;;;;;;;;;;;;;;;;;;5018312;28;19922;-86
2023/06/26 15:29:14;;;;;;;;;;;;;;;;;;5000608;28;19944;-89
2023/06/26 15:31:42;;;;;;;;;;;;;;;;;;5000564;28;19926;-86
2023/06/26 15:34:10;;;;;;;;;;;;;;;;;;4999879;28;19925;-85
2023/06/26 15:36:44;;;;;;;;;;;;;;;;;;5036667;28;20406;-86
2023/06/26 15:39:17;;;;;;;;;;;;;;;;;;5012970;28;19926;-86
2023/06/26 15:41:45;;;;;;;;;;;;;;;;;;5000222;28;19922;-86
2023/06/26 15:44:32;;;;;;;;;;;;;;;;;;5034788;28;19933;-87
2023/06/26 15:46:58;;;;;;;;;;;;;;;;;;5019045;28;19906;-84
2023/06/26 15:49:24;;;;;;;;;;;;;;;;;;5016089;28;19921;-84
2023/06/26 15:51:58;;;;;;;;;;;;;;;;;;5029782;28;20412;-84
2023/06/26 15:54:24;;;;;;;;;;;;;;;;;;5000794;28;20404;-83
2023/06/26 15:56:50;;;;;;;;;;;;;;;;;;5003731;28;19926;-84
2023/06/26 15:59:22;;;;;;;;;;;;;;;;;;5012945;28;19905;-87
2023/06/26 16:01:49;;;;;;;;;;;;;;;;;;5001519;28;19921;-85
2023/06/26 16:04:15;;;;;;;;;;;;;;;;;;5001523;28;19921;-84
2023/06/26 16:07:00;;;;;;;;;;;;;;;;;;5002368;28;20060;-84
2023/06/26 16:09:35;;;;;;;;;;;;;;;;;;4999325;28;19961;-85
2023/06/26 16:12:01;;;;;;;;;;;;;;;;;;5022580;28;19905;-84
2023/06/26 16:14:31;;;;;;;;;;;;;;;;;;5033822;28;19929;-83
2023/06/26 16:17:06;;;;;;;;;;;;;;;;;;5033826;28;19922;-85
2023/06/26 16:19:34;;;;;;;;;;;;;;;;;;5018363;28;19968;-84
2023/06/26 16:22:00;;;;;;;;;;;;;;;;;;5018938;28;20419;-84
2023/06/26 16:24:26;;;;;;;;;;;;;;;;;;5019371;28;19922;-85
2023/06/26 16:26:55;;;;;;;;;;;;;;;;;;5035207;28;19906;-84
2023/06/26 16:29:33;;;;;;;;;;;;;;;;;;5016652;28;19943;-84
2023/06/26 16:32:00;;;;;;;;;;;;;;;;;;5017519;28;19922;-84
2023/06/26 16:34:26;;;;;;;;;;;;;;;;;;5017098;28;20016;-83
2023/06/26 16:36:57;;;;;;;;;;;;;;;;;;5017476;28;19910;-84
2023/06/26 16:39:24;;;;;;;;;;;;;;;;;;5020824;28;19961;-84
2023/06/26 16:41:54;;;;;;;;;;;;;;;;;;5037495;28;19926;-84
2023/06/26 16:44:20;;;;;;;;;;;;;;;;;;5017034;28;19960;-83
2023/06/26 16:46:46;;;;;;;;;;;;;;;;;;5019759;28;19936;-83
2023/06/26 16:49:21;;;;;;;;;;;;;;;;;;5021888;28;19921;-83
2023/06/26 16:51:53;;;;;;;;;;;;;;;;;;5021517;28;19913;-84
2023/06/26 16:54:36;;;;;;;;;;;;;;;;;;5038119;28;19916;-83
2023/06/26 16:57:04;;;;;;;;;;;;;;;;;;5038526;28;19929;-83
2023/06/26 16:59:30;;;;;;;;;;;;;;;;;;5032905;28;19925;-83
2023/06/26 17:02:01;;;;;;;;;;;;;;;;;;5004870;28;19913;-83
2023/06/26 17:04:28;;;;;;;;;;;;;;;;;;5037544;28;19947;-82
2023/06/26 17:06:55;;;;;;;;;;;;;;;;;;5020828;28;19965;-83
2023/06/26 17:09:25;;;;;;;;;;;;;;;;;;5036965;28;20401;-85
2023/06/26 17:11:51;;;;;;;;;;;;;;;;;;5021864;28;19924;-83
2023/06/26 17:14:20;;;;;;;;;;;;;;;;;;5004552;28;19956;-83
2023/06/26 17:16:46;;;;;;;;;;;;;;;;;;5021248;28;19957;-84
2023/06/26 17:19:13;;;;;;;;;;;;;;;;;;5019606;28;19944;-82
2023/06/26 17:21:38;;;;;;;;;;;;;;;;;;5019394;28;19928;-82
2023/06/26 17:24:04;;;;;;;;;;;;;;;;;;5021343;28;19967;-84
2023/06/26 17:26:34;;;;;;;;;;;;;;;;;;5020196;28;19921;-81
2023/06/26 17:29:00;;;;;;;;;;;;;;;;;;5003697;28;19932;-83
2023/06/26 17:31:26;;;;;;;;;;;;;;;;;;5002591;28;19925;-81
2023/06/26 17:33:53;;;;;;;;;;;;;;;;;;5002890;28;19922;-84
2023/06/26 17:36:19;;;;;;;;;;;;;;;;;;5003773;28;19987;-83
2023/06/26 17:38:48;;;;;;;;;;;;;;;;;;5019101;28;19921;-83
2023/06/26 17:41:37;;;;;;;;;;;;;;;;;;5020850;28;19921;-82
2023/06/26 17:44:05;;;;;;;;;;;;;;;;;;5002365;28;19985;-84
2023/06/26 17:46:31;;;;;;;;;;;;;;;;;;5021467;28;19910;-84
2023/06/26 17:49:02;;;;;;;;;;;;;;;;;;5003215;28;19917;-82
2023/06/26 17:51:31;;;;;;;;;;;;;;;;;;5035480;28;19921;-83
2023/06/26 17:53:57;;;;;;;;;;;;;;;;;;5020116;28;19913;-84
2023/06/26 17:56:23;;;;;;;;;;;;;;;;;;5033606;28;19932;-84
2023/06/26 17:58:52;;;;;;;;;;;;;;;;;;5000847;28;19960;-82
2023/06/26 18:17:22;;;;;;;;;;;;;;;;;;5047175;28;19937;-88
2023/06/26 18:45:52;;;;;;;;;;;;;;;;;;5202727;22;19925;-87
2023/06/26 22:14:10;;;;;;;;;;;;;;;;;;5035696;28;19925;-83
2023/06/26 22:16:38;;;;;;;;;;;;;;;;;;4999364;28;19910;-85
2023/06/26 22:19:13;;;;;;;;;;;;;;;;;;5016895;28;19944;-87
2023/06/26 22:21:46;;;;;;;;;;;;;;;;;;5017284;28;19985;-85
2023/06/26 22:24:18;;;;;;;;;;;;;;;;;;4982880;28;19973;-85
2023/06/26 22:26:44;;;;;;;;;;;;;;;;;;4985697;28;19921;-85
2023/06/26 22:29:10;;;;;;;;;;;;;;;;;;4999665;28;19945;-84
2023/06/26 22:31:36;;;;;;;;;;;;;;;;;;4982902;28;19918;-84
2023/06/26 22:34:03;;;;;;;;;;;;;;;;;;4983135;28;19949;-83
2023/06/26 22:36:55;;;;;;;;;;;;;;;;;;5018597;28;19984;-85
2023/06/26 22:39:22;;;;;;;;;;;;;;;;;;5015602;28;19976;-84
2023/06/26 22:41:53;;;;;;;;;;;;;;;;;;4984865;28;19906;-84
2023/06/26 22:44:20;;;;;;;;;;;;;;;;;;4983648;28;19906;-84
2023/06/26 22:46:57;;;;;;;;;;;;;;;;;;5001470;28;19922;-85
2023/06/26 22:49:27;;;;;;;;;;;;;;;;;;4994280;28;19993;-85
2023/06/26 22:52:03;;;;;;;;;;;;;;;;;;4985927;28;19929;-84
2023/06/26 22:54:51;;;;;;;;;;;;;;;;;;5005456;28;19928;-85
2023/06/26 23:00:21;;;;;;;;;;;;;;;;;;5024524;28;19913;-86
2023/06/26 23:02:51;;;;;;;;;;;;;;;;;;4999233;28;19912;-86
2023/06/26 23:05:17;;;;;;;;;;;;;;;;;;4983607;28;19910;-87
2023/06/26 23:07:43;;;;;;;;;;;;;;;;;;4982683;28;19922;-84
2023/06/26 23:10:10;;;;;;;;;;;;;;;;;;4984302;28;19977;-86
2023/06/26 23:12:39;;;;;;;;;;;;;;;;;;4985809;28;19906;-84
2023/06/26 23:15:08;;;;;;;;;;;;;;;;;;5001373;28;19910;-85
2023/06/26 23:17:35;;;;;;;;;;;;;;;;;;4984422;28;19922;-84
2023/06/26 23:23:09;;;;;;;;;;;;;;;;;;4998703;28;19922;-85
2023/06/26 23:25:50;;;;;;;;;;;;;;;;;;5017062;28;19926;-84
